Pisgah, Illinois
Current Conditions -  °F | °C
As of 1:55 AM on Thursday 23 Oct 2014 (Local Time) from KIJX Reporting Station
Clear Clear  
Wind Chill: 44°   Ceiling: Unl
Heat Index: 44°   Visibility: 10mi
Dew Point: 38°   Wind: 3mph
Humidity: 80%   Direction: 140°SE
Pressure: 30.21"   Gusts: NA
Location:  39.7413°N, 90.2138°W
Report Text: KIJX 230655Z AUTO 14003KT 10SM CLR 07/04 A3021 RMK AO2 T00680035
Loading
Personal Weather Stations






























Interactive Weather Map
Tropical Storm Tracking
New forecast layout! Learn more

10-Day Weather Forecast

Advertisements
Track Severe Weather on mobile